Time;durP1;ratioP1;P1;durP2;ratioP2;P2;SDS_P1;SDS_P2;PMS_P1;PMS_P2;Temp;Humidity;BMP_temperature;BMP_pressure;BME280_temperature;BME280_humidity;BME280_pressure;Samples;Min_cycle;Max_cycle;Signal;HPM_P1;HPM_P2
2023/02/06 00:01:13;;;;;;;9.65;5.20;;;;;;;1.66;60.74;100767.72;4993689;28;20061;-63
2023/02/06 00:03:38;;;;;;;11.15;5.70;;;;;;;1.93;59.18;100771.47;4990722;28;20054;-61
2023/02/06 00:06:04;;;;;;;7.53;4.93;;;;;;;2.07;58.13;100770.72;4993638;28;20037;-62
2023/02/06 00:08:29;;;;;;;7.38;4.60;;;;;;;2.09;56.79;100769.75;4995270;28;20075;-63
2023/02/06 00:10:55;;;;;;;6.47;3.70;;;;;;;2.04;55.62;100771.75;4997425;28;20111;-64
2023/02/06 00:13:21;;;;;;;5.57;3.80;;;;;;;1.16;56.44;100774.63;4996382;28;20232;-61
2023/02/06 00:15:47;;;;;;;3.60;2.22;;;;;;;0.61;56.84;100777.31;4997413;28;20038;-63
2023/02/06 00:18:12;;;;;;;2.40;1.75;;;;;;;0.21;57.34;100769.69;4996576;28;20044;-61
2023/02/06 00:20:38;;;;;;;3.85;2.15;;;;;;;0.09;58.41;100776.31;4995134;28;20030;-61
2023/02/06 00:23:04;;;;;;;3.67;2.00;;;;;;;0.11;58.99;100778.84;4994910;28;20389;-63
2023/02/06 00:25:29;;;;;;;3.13;2.10;;;;;;;0.18;59.22;100775.88;4996999;28;20042;-61
2023/02/06 00:27:54;;;;;;;3.88;2.15;;;;;;;0.21;60.03;100773.13;4996147;28;20046;-61
2023/02/06 00:30:20;;;;;;;3.70;2.38;;;;;;;0.36;59.62;100770.72;4995180;28;20034;-61
2023/02/06 00:32:45;;;;;;;2.72;2.10;;;;;;;0.28;59.19;100778.91;4995254;28;20252;-63
2023/02/06 00:35:11;;;;;;;4.07;2.22;;;;;;;0.42;60.53;100781.69;4997787;28;20339;-64
2023/02/06 00:37:36;;;;;;;3.95;2.47;;;;;;;0.45;59.81;100781.56;4996771;28;20318;-61
2023/02/06 00:40:02;;;;;;;3.88;2.40;;;;;;;0.35;60.53;100779.47;4997274;28;20276;-61
2023/02/06 00:42:27;;;;;;;4.80;2.22;;;;;;;0.41;59.12;100779.16;4996899;28;20030;-64
2023/02/06 00:44:53;;;;;;;5.18;2.95;;;;;;;0.62;58.89;100778.16;4996756;28;20050;-63
2023/02/06 00:47:18;;;;;;;4.75;3.00;;;;;;;0.68;58.76;100780.47;4997478;28;20046;-62
2023/02/06 00:49:43;;;;;;;4.90;2.88;;;;;;;0.94;57.45;100785.25;4997030;28;20113;-61
2023/02/06 00:52:09;;;;;;;3.10;2.72;;;;;;;1.15;55.70;100775.53;4996283;28;20118;-61
2023/02/06 00:54:34;;;;;;;3.30;2.78;;;;;;;1.42;54.37;100782.88;4996122;28;20054;-63
2023/02/06 00:56:59;;;;;;;5.07;2.58;;;;;;;1.57;53.48;100779.47;4996391;28;20044;-63
2023/02/06 00:59:25;;;;;;;4.88;2.50;;;;;;;1.44;53.71;100778.44;4993934;28;20050;-62
2023/02/06 01:01:50;;;;;;;3.28;2.13;;;;;;;1.51;53.57;100785.03;4996259;28;20383;-63
2023/02/06 01:04:16;;;;;;;4.13;2.55;;;;;;;1.80;53.54;100773.06;4993992;28;20054;-65
2023/02/06 01:06:41;;;;;;;4.60;2.80;;;;;;;1.94;52.08;100778.38;4995311;28;20380;-65
2023/02/06 01:09:07;;;;;;;3.25;2.47;;;;;;;2.14;51.89;100772.97;4993911;28;20165;-63
2023/02/06 01:11:34;;;;;;;3.45;2.13;;;;;;;2.20;51.84;100766.56;4995638;28;20041;-63
2023/02/06 01:14:00;;;;;;;3.90;2.30;;;;;;;2.42;51.52;100774.06;4996500;28;20356;-65
2023/02/06 01:16:25;;;;;;;3.95;2.33;;;;;;;2.64;50.05;100774.53;4996259;28;20034;-65
2023/02/06 01:18:51;;;;;;;3.70;2.58;;;;;;;2.78;49.25;100771.16;4995466;28;20113;-62
2023/02/06 01:21:19;;;;;;;4.15;2.70;;;;;;;2.94;48.57;100771.94;4996229;28;20038;-63
2023/02/06 01:23:48;;;;;;;6.20;3.45;;;;;;;3.08;48.99;100768.53;4996331;28;20108;-64
2023/02/06 01:26:15;;;;;;;3.83;2.67;;;;;;;3.21;47.60;100764.31;4995749;28;20053;-64
2023/02/06 01:28:43;;;;;;;3.22;2.42;;;;;;;3.27;47.66;100768.31;4995697;28;20236;-62
2023/02/06 01:31:28;;;;;;;4.13;2.20;;;;;;;3.27;47.02;100760.47;4996182;28;20121;-63
2023/02/06 01:33:56;;;;;;;3.30;2.15;;;;;;;3.25;47.93;100757.94;4994588;28;20068;-64
2023/02/06 01:36:22;;;;;;;4.68;2.17;;;;;;;3.27;48.01;100760.47;4994285;28;20030;-64
2023/02/06 01:38:48;;;;;;;4.40;2.10;;;;;;;3.25;48.41;100759.72;4995339;28;20035;-63
2023/02/06 01:41:16;;;;;;;3.70;1.90;;;;;;;3.19;48.65;100766.16;4994062;28;20042;-63
2023/02/06 01:43:45;;;;;;;3.05;1.92;;;;;;;3.24;49.00;100756.25;4994393;28;20034;-64
2023/02/06 01:46:10;;;;;;;3.85;2.25;;;;;;;3.25;48.67;100760.56;4994877;28;20038;-65
2023/02/06 01:48:47;;;;;;;2.95;2.20;;;;;;;3.18;49.06;100757.47;4994368;28;20281;-62
2023/02/06 01:51:17;;;;;;;2.80;2.00;;;;;;;3.20;48.63;100755.59;4993568;28;20053;-62
2023/02/06 01:53:47;;;;;;;3.97;2.33;;;;;;;3.23;48.29;100756.34;4993832;28;20201;-64
2023/02/06 01:56:18;;;;;;;3.15;1.95;;;;;;;3.31;47.99;100761.97;4993962;28;20407;-62
2023/02/06 01:58:47;;;;;;;2.72;2.05;;;;;;;3.34;48.16;100760.03;4994702;28;20057;-62
2023/02/06 02:01:13;;;;;;;2.33;1.85;;;;;;;3.36;48.96;100766.00;4993722;28;20325;-62
2023/02/06 02:03:41;;;;;;;4.03;1.95;;;;;;;3.34;48.85;100760.03;4995163;28;20763;-62
2023/02/06 02:06:11;;;;;;;3.30;2.10;;;;;;;3.38;49.26;100768.53;4994250;28;20046;-64
2023/02/06 02:08:40;;;;;;;3.50;2.28;;;;;;;3.40;49.30;100762.28;4994593;28;20038;-63
2023/02/06 02:11:07;;;;;;;3.17;2.00;;;;;;;3.37;49.42;100761.63;4995019;28;20034;-62
2023/02/06 02:13:35;;;;;;;3.97;2.13;;;;;;;3.29;49.47;100762.06;4994925;28;20043;-63
2023/02/06 02:16:26;;;;;;;3.45;2.33;;;;;;;3.27;50.12;100770.94;4993525;28;20093;-64
2023/02/06 02:18:54;;;;;;;4.55;2.60;;;;;;;3.12;50.50;100757.81;4995368;28;20042;-64
2023/02/06 02:21:53;;;;;;;3.63;2.38;;;;;;;3.13;50.24;100769.97;4995548;28;20076;-62
2023/02/06 02:24:39;;;;;;;3.40;2.33;;;;;;;3.08;50.23;100772.00;4993132;28;20328;-63
2023/02/06 02:27:10;;;;;;;2.58;2.00;;;;;;;3.12;49.90;100772.66;4993540;28;20080;-62
2023/02/06 02:30:23;;;;;;;3.13;2.35;;;;;;;3.08;49.26;100771.16;4995995;28;20046;-63
2023/02/06 02:33:25;;;;;;;3.35;2.28;;;;;;;3.02;49.84;100772.34;4916817;29;20423;-62
2023/02/06 02:35:59;;;;;;;4.63;3.10;;;;;;;3.01;49.62;100775.91;4994327;28;20038;-62
2023/02/06 02:38:39;;;;;;;4.78;2.90;;;;;;;2.85;49.75;100773.31;4994696;28;20088;-62
2023/02/06 02:41:23;;;;;;;4.28;2.67;;;;;;;2.77;50.46;100775.53;4994588;28;20044;-64
2023/02/06 02:44:06;;;;;;;5.15;3.38;;;;;;;2.65;51.55;100780.63;4994392;28;20350;-62
2023/02/06 02:46:37;;;;;;;4.00;3.38;;;;;;;2.29;52.66;100779.13;4994162;28;20066;-62
2023/02/06 02:49:18;;;;;;;4.53;3.00;;;;;;;2.12;52.70;100781.81;4994761;28;20402;-63
2023/02/06 02:51:46;;;;;;;3.55;2.70;;;;;;;2.07;53.54;100787.25;4992936;28;20030;-64
2023/02/06 02:54:12;;;;;;;4.43;2.35;;;;;;;2.11;53.66;100786.19;4992654;28;20039;-62
2023/02/06 02:56:37;;;;;;;5.38;2.67;;;;;;;2.31;53.17;100785.09;4993682;28;20378;-62
2023/02/06 02:59:22;;;;;;;3.25;2.50;;;;;;;2.54;52.95;100791.69;4994197;28;20046;-62
2023/02/06 03:02:02;;;;;;;3.80;2.70;;;;;;;2.72;52.81;100789.81;4993798;28;20038;-62
2023/02/06 03:04:34;;;;;;;3.83;2.92;;;;;;;2.76;52.46;100789.53;4994132;28;20235;-63
2023/02/06 03:07:23;;;;;;;6.25;3.45;;;;;;;2.73;53.71;100791.50;4993992;28;20068;-62
2023/02/06 03:09:57;;;;;;;7.22;4.25;;;;;;;2.69;53.45;100796.03;4994111;28;20213;-63
2023/02/06 03:13:09;;;;;;;13.63;7.65;;;;;;;2.76;54.72;100786.09;4992691;28;20145;-64
2023/02/06 03:15:41;;;;;;;11.05;6.20;;;;;;;2.76;54.32;100773.84;4990588;28;20046;-64
2023/02/06 03:18:34;;;;;;;9.68;7.22;;;;;;;2.76;54.20;100779.06;4993949;28;20037;-62
2023/02/06 03:21:02;;;;;;;13.35;8.63;;;;;;;2.82;54.11;100778.72;4994317;28;20046;-62
2023/02/06 03:23:31;;;;;;;15.75;7.30;;;;;;;2.87;54.24;100781.09;4993709;28;20497;-63
2023/02/06 03:26:01;;;;;;;10.00;6.43;;;;;;;3.03;53.59;100788.88;4993249;28;20034;-64
2023/02/06 03:28:31;;;;;;;10.82;6.07;;;;;;;3.14;53.07;100783.91;4992670;28;20045;-62
2023/02/06 03:31:01;;;;;;;8.85;5.72;;;;;;;3.21;53.01;100790.47;4993910;28;20030;-63
2023/02/06 03:33:34;;;;;;;11.68;6.18;;;;;;;3.29;52.85;100793.47;4993597;28;20084;-64
2023/02/06 03:35:59;;;;;;;15.15;6.55;;;;;;;3.36;52.51;100786.09;4993189;28;20073;-62
2023/02/06 03:38:27;;;;;;;6.40;4.63;;;;;;;3.35;52.11;100785.25;4993806;28;20046;-62
2023/02/06 03:40:55;;;;;;;7.65;5.30;;;;;;;3.38;52.10;100790.31;4993736;28;20336;-63
2023/02/06 03:43:23;;;;;;;8.45;5.20;;;;;;;3.34;51.63;100791.44;4995311;28;20034;-62
2023/02/06 03:45:55;;;;;;;8.93;5.15;;;;;;;3.27;52.45;100791.88;4998002;28;20054;-64
2023/02/06 03:48:26;;;;;;;8.13;4.93;;;;;;;3.26;53.38;100790.19;4997184;28;20349;-63
2023/02/06 03:50:55;;;;;;;8.88;5.22;;;;;;;3.24;53.19;100792.06;4996552;28;20046;-61
2023/02/06 03:53:22;;;;;;;8.70;6.13;;;;;;;3.18;52.91;100781.03;4997722;28;20039;-62
2023/02/06 03:55:53;;;;;;;8.68;5.35;;;;;;;3.10;53.53;100782.38;4997311;28;20042;-64
2023/02/06 03:58:18;;;;;;;7.60;5.03;;;;;;;3.07;53.29;100782.56;4995894;28;20042;-64
2023/02/06 04:00:45;;;;;;;8.85;5.22;;;;;;;3.01;53.88;100781.13;4997058;28;20048;-62
2023/02/06 04:03:12;;;;;;;8.52;5.50;;;;;;;2.97;54.27;100797.09;4996331;28;20272;-62
2023/02/06 04:05:39;;;;;;;16.02;6.97;;;;;;;2.91;54.70;100792.22;4995509;28;20046;-64
2023/02/06 04:08:05;;;;;;;16.60;9.07;;;;;;;2.84;54.63;100797.78;4995322;28;20042;-63
2023/02/06 04:10:30;;;;;;;11.68;7.18;;;;;;;2.67;55.29;100802.28;4997386;28;20384;-62
2023/02/06 04:12:56;;;;;;;10.75;5.82;;;;;;;2.50;55.98;100805.84;4994331;28;20062;-62
2023/02/06 04:15:21;;;;;;;8.82;6.18;;;;;;;2.29;56.23;100804.41;4996729;28;20344;-64
2023/02/06 04:17:47;;;;;;;9.18;5.32;;;;;;;2.09;56.54;100808.09;4997000;28;20050;-64
2023/02/06 04:20:13;;;;;;;6.47;5.32;;;;;;;1.83;57.31;100812.06;4996169;28;20105;-62
2023/02/06 04:22:39;;;;;;;8.00;5.60;;;;;;;1.71;58.21;100807.47;4995747;28;20123;-62
2023/02/06 04:25:05;;;;;;;8.18;5.80;;;;;;;1.69;58.76;100815.41;4995972;28;20042;-64
2023/02/06 04:27:30;;;;;;;8.30;5.80;;;;;;;1.51;59.22;100809.34;4996227;28;20258;-63
2023/02/06 04:29:56;;;;;;;10.48;6.60;;;;;;;1.47;59.79;100807.81;4996688;28;20038;-62
2023/02/06 04:32:21;;;;;;;7.28;4.80;;;;;;;1.41;60.00;100808.13;4995622;28;20136;-62
2023/02/06 04:34:47;;;;;;;7.38;5.07;;;;;;;1.37;60.16;100803.16;4995938;28;20050;-63
2023/02/06 04:37:12;;;;;;;8.50;5.95;;;;;;;1.28;60.00;100800.09;4997011;28;20038;-63
2023/02/06 04:39:38;;;;;;;8.05;6.10;;;;;;;1.28;60.04;100810.53;4996836;28;20057;-61
2023/02/06 04:42:04;;;;;;;10.18;5.50;;;;;;;1.35;59.78;100815.44;4996876;28;20034;-62
2023/02/06 04:44:30;;;;;;;16.67;7.40;;;;;;;1.36;59.53;100811.91;4996589;28;20034;-64
2023/02/06 04:46:56;;;;;;;22.77;12.38;;;;;;;1.34;60.28;100816.34;4997485;28;20500;-64
2023/02/06 04:49:21;;;;;;;20.25;10.25;;;;;;;1.26;60.39;100819.34;4996920;28;20049;-62
2023/02/06 04:51:47;;;;;;;13.57;7.38;;;;;;;1.17;60.54;100820.66;4995829;28;20023;-62
2023/02/06 04:54:16;;;;;;;11.93;7.65;;;;;;;1.16;60.61;100815.50;4995999;28;20340;-63
2023/02/06 04:56:42;;;;;;;18.02;9.00;;;;;;;1.17;60.71;100823.25;4997479;28;20074;-63
2023/02/06 04:59:08;;;;;;;10.30;6.47;;;;;;;1.24;60.34;100824.66;4996168;28;20030;-62
2023/02/06 05:01:33;;;;;;;14.65;7.47;;;;;;;1.26;60.02;100835.00;4996795;28;20037;-62
2023/02/06 05:03:59;;;;;;;24.13;11.35;;;;;;;1.13;60.21;100832.16;4999347;28;20124;-63
2023/02/06 05:06:24;;;;;;;39.25;16.33;;;;;;;1.25;59.69;100838.53;4999083;28;20541;-63
2023/02/06 05:08:49;;;;;;;36.15;16.45;;;;;;;1.33;59.65;100845.97;4999140;28;20077;-62
2023/02/06 05:11:15;;;;;;;18.45;11.85;;;;;;;1.26;59.38;100841.06;4999895;28;20038;-62
2023/02/06 05:13:41;;;;;;;14.68;8.85;;;;;;;1.12;58.60;100840.91;4999756;28;20041;-63
2023/02/06 05:16:12;;;;;;;15.77;8.52;;;;;;;1.08;59.03;100846.34;4999608;28;20261;-63
2023/02/06 05:18:38;;;;;;;13.80;8.32;;;;;;;0.90;58.91;100842.84;5000452;28;20204;-61
2023/02/06 05:21:04;;;;;;;16.00;9.43;;;;;;;0.78;59.39;100852.09;4999019;28;20081;-62
2023/02/06 05:23:31;;;;;;;28.52;14.63;;;;;;;0.59;59.44;100859.09;5011605;28;20046;-63
2023/02/06 05:25:57;;;;;;;26.33;14.43;;;;;;;0.54;59.01;100874.94;4999679;28;20049;-63
2023/02/06 05:28:22;;;;;;;17.85;10.35;;;;;;;0.51;58.21;100867.25;4997729;28;20046;-62
2023/02/06 05:30:48;;;;;;;15.88;8.18;;;;;;;0.50;57.15;100870.78;5000012;28;20205;-61
2023/02/06 05:33:13;;;;;;;12.77;7.13;;;;;;;0.41;56.20;100875.56;5000175;28;20054;-63
2023/02/06 05:35:40;;;;;;;10.85;6.32;;;;;;;0.30;55.06;100883.88;5000463;28;20236;-64
2023/02/06 05:38:05;;;;;;;8.85;5.65;;;;;;;0.33;54.78;100886.34;5000606;28;20038;-62
2023/02/06 05:40:31;;;;;;;9.95;5.05;;;;;;;0.33;54.67;100886.34;4999685;28;20057;-62
2023/02/06 05:42:57;;;;;;;11.63;5.30;;;;;;;0.26;54.95;100890.16;4990282;28;20305;-63
2023/02/06 05:45:23;;;;;;;10.57;5.65;;;;;;;0.15;55.84;100892.38;4984317;28;20103;-64
2023/02/06 05:47:48;;;;;;;8.82;5.70;;;;;;;-0.01;55.71;100906.03;4987791;28;20057;-62
2023/02/06 05:50:14;;;;;;;9.02;5.65;;;;;;;-0.02;56.46;100900.91;4986882;28;20240;-62
2023/02/06 05:52:40;;;;;;;13.40;6.15;;;;;;;-0.01;56.17;100900.84;4987500;28;20276;-63
2023/02/06 05:55:06;;;;;;;11.45;6.53;;;;;;;0.14;56.41;100911.53;4987097;28;20047;-63
2023/02/06 05:57:32;;;;;;;8.20;5.18;;;;;;;0.15;55.74;100908.84;4984309;28;20045;-62
2023/02/06 05:59:57;;;;;;;10.68;5.75;;;;;;;0.03;55.58;100917.19;4984547;28;20038;-62
2023/02/06 06:02:22;;;;;;;12.52;6.32;;;;;;;0.11;55.51;100909.91;4987357;28;20039;-62
2023/02/06 06:04:48;;;;;;;9.48;5.65;;;;;;;0.22;55.22;100912.03;4985340;28;20133;-63
2023/02/06 06:07:14;;;;;;;7.95;4.63;;;;;;;0.20;54.56;100924.28;4984564;28;20031;-61
2023/02/06 06:09:40;;;;;;;8.98;5.18;;;;;;;0.18;55.29;100926.09;4991295;28;20034;-61
2023/02/06 06:12:06;;;;;;;8.20;5.43;;;;;;;0.18;55.07;100921.75;4983915;28;20271;-62
2023/02/06 06:14:31;;;;;;;8.77;5.22;;;;;;;0.27;55.63;100923.94;4983825;28;20039;-63
2023/02/06 06:16:56;;;;;;;12.93;6.35;;;;;;;0.29;55.15;100936.91;4981079;28;20110;-63
2023/02/06 06:19:22;;;;;;;11.15;5.50;;;;;;;0.25;55.53;100930.97;4983464;28;20149;-62
2023/02/06 06:21:47;;;;;;;10.35;6.05;;;;;;;0.25;54.96;100940.56;4986093;28;20235;-62
2023/02/06 06:24:13;;;;;;;10.07;5.50;;;;;;;0.34;54.78;100936.69;4985322;28;20043;-62
2023/02/06 06:26:38;;;;;;;9.98;5.95;;;;;;;0.35;54.76;100934.03;4983514;28;20045;-63
2023/02/06 06:29:04;;;;;;;7.00;4.22;;;;;;;0.30;54.20;100922.97;4984800;28;20061;-61
2023/02/06 06:31:29;;;;;;;8.20;4.55;;;;;;;0.29;54.38;100936.91;4986397;28;20026;-62
2023/02/06 06:33:55;;;;;;;10.85;4.95;;;;;;;0.29;54.81;100935.13;4983488;28;20158;-62
2023/02/06 06:36:20;;;;;;;7.50;4.88;;;;;;;0.39;54.77;100930.38;4984134;28;20034;-62
2023/02/06 06:38:46;;;;;;;8.68;4.43;;;;;;;0.35;54.67;100938.38;4986385;28;20205;-63
2023/02/06 06:41:11;;;;;;;7.57;4.63;;;;;;;0.42;53.95;100931.97;4989403;28;20056;-62
2023/02/06 06:43:37;;;;;;;8.93;4.90;;;;;;;0.47;54.00;100933.47;4986407;28;20066;-61
2023/02/06 06:46:03;;;;;;;8.45;4.97;;;;;;;0.55;53.92;100936.56;4986908;28;20114;-62
2023/02/06 06:48:29;;;;;;;9.35;5.45;;;;;;;0.62;53.37;100943.19;4986321;28;20336;-62
2023/02/06 06:50:55;;;;;;;10.82;4.70;;;;;;;0.64;53.67;100932.69;4986300;28;20129;-61
2023/02/06 06:53:20;;;;;;;7.25;5.10;;;;;;;0.71;53.27;100943.69;4983152;28;20026;-61
2023/02/06 06:55:46;;;;;;;8.98;4.20;;;;;;;0.58;51.03;100948.63;4987521;28;20042;-63
2023/02/06 06:58:11;;;;;;;9.38;5.07;;;;;;;0.59;51.79;100956.38;4994159;28;20077;-64
2023/02/06 07:00:38;;;;;;;10.75;4.80;;;;;;;0.63;51.06;100957.91;4991876;28;20034;-61
2023/02/06 07:03:04;;;;;;;12.80;5.38;;;;;;;0.59;51.16;100952.91;4991365;28;20347;-61
2023/02/06 07:05:30;;;;;;;7.53;4.82;;;;;;;0.53;50.72;100945.38;4992453;28;20240;-61
2023/02/06 07:07:55;;;;;;;6.65;5.13;;;;;;;0.54;51.35;100957.50;4992491;28;20050;-63
2023/02/06 07:10:21;;;;;;;10.95;5.57;;;;;;;0.54;51.35;100958.34;4990059;28;20038;-61
2023/02/06 07:12:47;;;;;;;8.73;5.70;;;;;;;0.51;50.66;100958.47;4993224;28;20026;-61
2023/02/06 07:15:13;;;;;;;8.55;4.88;;;;;;;0.52;51.13;100970.59;4993171;28;20032;-61
2023/02/06 07:17:38;;;;;;;6.78;4.00;;;;;;;0.49;49.83;100960.31;4986592;28;20146;-61
2023/02/06 07:20:05;;;;;;;7.75;4.28;;;;;;;0.46;50.27;100964.81;4991843;28;20266;-64
2023/02/06 07:22:30;;;;;;;6.68;3.88;;;;;;;0.54;49.93;100967.91;4993240;28;20228;-63
2023/02/06 07:24:55;;;;;;;6.10;3.92;;;;;;;0.52;49.63;100965.38;4993650;28;20039;-61
2023/02/06 07:27:21;;;;;;;4.53;3.92;;;;;;;0.58;49.97;100972.06;4992170;28;20390;-61
2023/02/06 07:29:46;;;;;;;7.05;4.00;;;;;;;0.62;49.72;100973.63;4990935;28;20109;-63
2023/02/06 07:32:12;;;;;;;6.43;3.95;;;;;;;0.82;49.96;100977.94;4991699;28;20097;-63
2023/02/06 07:34:37;;;;;;;8.07;4.57;;;;;;;0.81;49.03;100978.84;4992963;28;20133;-61
2023/02/06 07:37:03;;;;;;;9.50;4.88;;;;;;;0.82;49.21;100977.94;4991892;28;20032;-61
2023/02/06 07:39:29;;;;;;;8.57;4.25;;;;;;;0.83;49.01;100983.09;4993194;28;20414;-61
2023/02/06 07:41:54;;;;;;;8.95;4.72;;;;;;;0.91;49.03;100985.34;4989509;28;20026;-63
2023/02/06 07:44:19;;;;;;;8.95;4.93;;;;;;;0.99;48.71;100985.84;4992475;28;20033;-63
2023/02/06 07:46:46;;;;;;;12.10;6.22;;;;;;;0.94;48.21;100982.59;4987560;28;20046;-62
2023/02/06 07:49:13;;;;;;;12.13;5.63;;;;;;;0.83;48.43;100977.03;4992114;28;20045;-61
2023/02/06 07:51:40;;;;;;;7.93;4.15;;;;;;;0.80;48.44;100985.00;4992247;28;20098;-63
2023/02/06 07:54:05;;;;;;;7.68;4.75;;;;;;;0.78;48.30;100972.03;4992896;28;20051;-64
2023/02/06 07:56:30;;;;;;;9.45;5.90;;;;;;;0.83;48.46;100971.81;4990956;28;20065;-61
2023/02/06 07:58:56;;;;;;;8.10;4.75;;;;;;;0.93;48.80;100978.28;4993444;28;20042;-61
2023/02/06 08:01:22;;;;;;;8.57;5.25;;;;;;;0.92;48.62;100980.06;4992238;28;20223;-62
2023/02/06 08:03:49;;;;;;;7.72;4.50;;;;;;;0.83;47.80;100987.47;4993179;28;20125;-63
2023/02/06 08:06:16;;;;;;;10.07;4.50;;;;;;;0.80;48.32;100992.81;4989013;28;20053;-63
2023/02/06 08:08:42;;;;;;;8.13;5.18;;;;;;;0.88;49.02;100994.16;4992108;28;20236;-61
2023/02/06 08:11:10;;;;;;;10.75;5.85;;;;;;;0.91;49.07;100994.00;4990885;28;20038;-62
2023/02/06 08:13:36;;;;;;;10.15;4.93;;;;;;;1.06;48.13;100997.72;4992631;28;20042;-62
2023/02/06 08:16:07;;;;;;;8.75;4.55;;;;;;;1.10;48.25;100994.03;4992926;28;20053;-63
2023/02/06 08:18:32;;;;;;;6.50;4.55;;;;;;;1.16;47.82;100993.75;4991318;28;20256;-62
2023/02/06 08:21:09;;;;;;;8.98;4.97;;;;;;;1.27;48.36;100999.31;4992875;28;20031;-61
2023/02/06 08:23:35;;;;;;;7.90;4.50;;;;;;;1.39;47.32;101000.50;4991132;28;20030;-61
2023/02/06 08:26:02;;;;;;;8.52;4.78;;;;;;;1.54;48.10;101001.53;4992607;28;20042;-63
2023/02/06 08:28:27;;;;;;;9.40;5.15;;;;;;;1.77;47.51;100998.63;4990461;28;20034;-63
2023/02/06 08:30:53;;;;;;;10.10;4.57;;;;;;;1.87;46.02;100994.66;4994195;28;20227;-61
2023/02/06 08:33:18;;;;;;;6.20;3.88;;;;;;;1.92;45.86;101002.25;4995002;28;20038;-61
2023/02/06 08:35:43;;;;;;;7.60;4.75;;;;;;;1.92;45.35;101002.25;4994669;28;20034;-62
2023/02/06 08:38:09;;;;;;;5.75;4.25;;;;;;;1.83;45.95;101002.72;4995388;28;20251;-62
2023/02/06 08:40:34;;;;;;;6.63;3.85;;;;;;;2.14;44.52;101000.28;4994887;28;20052;-61
2023/02/06 08:43:00;;;;;;;6.60;3.95;;;;;;;2.18;44.40;101004.44;4995808;28;20413;-61
2023/02/06 08:45:25;;;;;;;6.68;3.90;;;;;;;2.33;43.85;101009.78;4994518;28;20640;-62
2023/02/06 08:47:50;;;;;;;6.97;3.90;;;;;;;2.51;43.60;101003.63;4994874;28;20022;-62
2023/02/06 08:50:16;;;;;;;7.10;3.70;;;;;;;2.52;42.69;101000.91;4993168;28;20216;-61
2023/02/06 08:52:41;;;;;;;7.45;4.10;;;;;;;2.63;42.90;101015.19;4995302;28;20042;-61
2023/02/06 08:55:07;;;;;;;8.65;3.90;;;;;;;2.70;42.11;101013.94;4994722;28;20105;-63
2023/02/06 08:57:32;;;;;;;6.10;4.22;;;;;;;2.78;42.49;101010.00;4994166;28;20034;-62
2023/02/06 08:59:58;;;;;;;6.57;3.80;;;;;;;2.78;41.72;101003.94;4993460;28;20081;-61
2023/02/06 09:02:23;;;;;;;6.38;3.47;;;;;;;2.92;41.70;101004.03;4995340;28;20193;-61
2023/02/06 09:04:48;;;;;;;6.47;3.53;;;;;;;2.89;42.10;100999.81;4996335;28;20030;-61
2023/02/06 09:07:14;;;;;;;9.23;3.75;;;;;;;3.02;42.43;100999.16;4995208;28;20251;-62
2023/02/06 09:09:40;;;;;;;5.68;3.05;;;;;;;3.16;41.01;101007.97;4995574;28;20064;-62
2023/02/06 09:12:05;;;;;;;5.65;3.17;;;;;;;3.34;40.45;100994.78;4995579;28;20045;-61
2023/02/06 09:14:31;;;;;;;4.65;2.20;;;;;;;3.38;39.21;100993.69;4994100;28;20061;-62
2023/02/06 09:16:57;;;;;;;4.05;2.42;;;;;;;3.37;39.55;100995.47;4996558;28;20042;-62
2023/02/06 09:19:23;;;;;;;2.97;2.17;;;;;;;3.55;39.16;101000.59;4991975;28;20045;-61
2023/02/06 09:21:48;;;;;;;4.20;2.72;;;;;;;3.68;39.82;100988.50;4995006;28;20137;-63
2023/02/06 09:24:13;;;;;;;4.10;2.60;;;;;;;3.98;39.16;100993.72;4994911;28;20092;-62
2023/02/06 09:26:41;;;;;;;4.60;2.53;;;;;;;4.18;38.45;100997.84;4995512;28;20096;-62
2023/02/06 09:29:09;;;;;;;5.25;3.45;;;;;;;4.28;38.12;100989.34;4994990;28;20038;-61
2023/02/06 09:31:38;;;;;;;2.88;2.05;;;;;;;4.31;37.72;100994.41;4994822;28;20058;-61
2023/02/06 09:34:05;;;;;;;2.78;1.95;;;;;;;4.33;37.50;100989.06;4994377;28;20249;-62
2023/02/06 09:36:33;;;;;;;3.47;2.08;;;;;;;4.25;37.52;100981.66;4995622;28;20040;-62
2023/02/06 09:38:58;;;;;;;3.15;2.30;;;;;;;4.18;37.29;100980.31;4994839;28;20030;-61
2023/02/06 09:41:43;;;;;;;3.75;2.80;;;;;;;4.09;37.53;100976.44;4994667;28;20022;-62
2023/02/06 09:44:26;;;;;;;4.03;2.40;;;;;;;4.07;37.95;100972.22;4995820;28;20046;-61
2023/02/06 09:46:57;;;;;;;3.07;1.87;;;;;;;4.11;37.40;100968.50;4994441;28;20050;-61
2023/02/06 09:49:43;;;;;;;3.80;2.10;;;;;;;4.14;37.94;100974.38;4992920;28;20038;-61
2023/02/06 09:52:40;;;;;;;5.63;2.10;;;;;;;4.28;37.32;100968.34;4996770;28;20049;-64
2023/02/06 09:55:12;;;;;;;4.68;2.40;;;;;;;4.29;37.35;100963.97;4947455;28;20101;-61
2023/02/06 09:57:52;;;;;;;3.75;2.65;;;;;;;4.24;38.04;100956.38;4997418;28;20057;-62
2023/02/06 10:00:32;;;;;;;4.82;2.95;;;;;;;4.38;37.51;100956.38;4997499;28;20046;-62
2023/02/06 10:03:00;;;;;;;4.03;2.45;;;;;;;4.44;37.34;100957.78;4998039;28;20294;-61
2023/02/06 10:05:43;;;;;;;4.88;2.47;;;;;;;4.44;37.31;100956.00;4998145;28;20047;-63
2023/02/06 10:08:29;;;;;;;2.83;2.08;;;;;;;4.47;36.40;100949.72;4997866;28;20049;-61
2023/02/06 10:10:59;;;;;;;3.00;2.08;;;;;;;4.51;36.21;100955.63;4998093;28;20053;-62
2023/02/06 10:13:48;;;;;;;4.45;2.40;;;;;;;4.64;36.58;100951.31;4997365;28;20324;-61
2023/02/06 10:16:42;;;;;;;5.85;2.70;;;;;;;4.60;36.21;100939.31;4998653;28;20710;-62
2023/02/06 10:19:42;;;;;;;4.07;2.15;;;;;;;4.42;35.74;100929.03;4997961;28;20093;-62
2023/02/06 10:22:14;;;;;;;3.30;1.98;;;;;;;4.39;37.18;100938.88;4995323;28;20038;-63
2023/02/06 10:25:09;;;;;;;4.57;2.60;;;;;;;4.41;36.16;100935.22;4998127;28;20205;-61
2023/02/06 10:27:39;;;;;;;6.80;2.63;;;;;;;4.46;35.76;100932.31;4977573;28;20046;-62
2023/02/06 10:30:05;;;;;;;6.00;3.00;;;;;;;4.44;36.08;100929.78;4997674;28;20125;-62
2023/02/06 10:33:04;;;;;;;4.13;2.42;;;;;;;4.48;36.29;100927.81;4998122;28;20034;-63
2023/02/06 10:36:00;;;;;;;5.32;2.75;;;;;;;4.51;36.56;100932.03;4996414;28;20485;-61
2023/02/06 10:38:29;;;;;;;4.97;2.17;;;;;;;4.67;35.96;100922.25;4997645;28;20042;-62
2023/02/06 10:41:10;;;;;;;5.35;2.88;;;;;;;4.78;36.21;100919.81;4997881;28;20038;-62
2023/02/06 10:43:49;;;;;;;3.17;2.67;;;;;;;4.87;35.68;100916.59;4997223;28;20137;-62
2023/02/06 10:46:40;;;;;;;6.97;2.80;;;;;;;4.77;34.65;100918.97;4997877;28;20042;-63
2023/02/06 10:49:18;;;;;;;5.47;3.20;;;;;;;4.68;35.28;100916.94;4997586;28;20056;-63
2023/02/06 10:51:47;;;;;;;4.88;2.83;;;;;;;4.71;34.87;100919.34;4997373;28;20053;-64
2023/02/06 10:54:28;;;;;;;5.95;3.05;;;;;;;4.65;35.79;100913.66;4997154;28;20324;-63
2023/02/06 10:56:57;;;;;;;6.75;3.17;;;;;;;4.65;35.38;100911.03;4997234;28;20207;-62
2023/02/06 10:59:26;;;;;;;4.22;2.70;;;;;;;4.61;34.68;100915.63;4997050;28;20038;-63
2023/02/06 11:02:20;;;;;;;3.97;2.42;;;;;;;4.60;35.14;100911.31;4997615;28;20038;-64
2023/02/06 11:05:06;;;;;;;4.68;2.83;;;;;;;4.63;35.29;100902.41;4996619;28;20263;-64
2023/02/06 11:07:42;;;;;;;5.75;2.50;;;;;;;4.59;35.41;100904.38;4996672;28;20078;-61
2023/02/06 11:10:16;;;;;;;4.97;2.63;;;;;;;4.49;35.28;100904.09;4996847;28;20061;-61
2023/02/06 11:12:50;;;;;;;5.10;2.97;;;;;;;4.37;35.92;100902.25;4996857;28;20256;-62
2023/02/06 11:15:38;;;;;;;4.38;3.03;;;;;;;4.41;36.58;100901.13;4997770;28;20050;-61
2023/02/06 11:18:11;;;;;;;5.75;2.95;;;;;;;4.60;36.55;100905.22;4996874;28;20041;-63
2023/02/06 11:20:41;;;;;;;5.90;2.88;;;;;;;4.60;36.90;100892.94;4997537;28;20049;-63
2023/02/06 11:23:19;;;;;;;6.32;3.10;;;;;;;4.65;37.37;100895.28;4997105;28;20105;-62
2023/02/06 11:25:53;;;;;;;6.60;3.45;;;;;;;4.63;36.89;100898.00;4996745;28;20124;-61
2023/02/06 11:28:21;;;;;;;5.97;3.50;;;;;;;4.71;37.00;100895.75;4996853;28;20352;-63
2023/02/06 11:31:00;;;;;;;5.40;3.00;;;;;;;4.55;36.84;100896.81;4996932;28;20232;-63
2023/02/06 11:33:44;;;;;;;5.10;2.42;;;;;;;4.58;36.13;100899.22;4997002;28;20046;-61
2023/02/06 11:36:26;;;;;;;4.70;3.30;;;;;;;4.67;37.11;100888.16;4996603;28;20065;-62
2023/02/06 11:39:20;;;;;;;6.30;3.92;;;;;;;4.78;37.53;100886.53;4996345;28;20054;-61
2023/02/06 11:42:24;;;;;;;5.70;2.85;;;;;;;4.72;36.10;100872.97;4957288;28;20233;-63
2023/02/06 11:44:51;;;;;;;6.47;2.80;;;;;;;4.55;36.26;100867.94;4904247;29;20052;-62